sensor_id;sensor_type;location;lat;lon;timestamp;temperature;humidity
17887;DHT22;9069;52.044;7.472;2022-08-21T00:01:35;22.40;70.20
17887;DHT22;9069;52.044;7.472;2022-08-21T00:04:06;22.30;70.20
17887;DHT22;9069;52.044;7.472;2022-08-21T00:06:33;22.30;70.50
17887;DHT22;9069;52.044;7.472;2022-08-21T00:09:02;22.30;70.40
17887;DHT22;9069;52.044;7.472;2022-08-21T00:11:33;22.20;70.60
17887;DHT22;9069;52.044;7.472;2022-08-21T00:14:02;22.20;70.70
17887;DHT22;9069;52.044;7.472;2022-08-21T00:16:29;22.20;70.70
17887;DHT22;9069;52.044;7.472;2022-08-21T00:18:55;22.20;70.80
17887;DHT22;9069;52.044;7.472;2022-08-21T00:21:22;22.10;71.00
17887;DHT22;9069;52.044;7.472;2022-08-21T00:23:49;22.10;71.10
17887;DHT22;9069;52.044;7.472;2022-08-21T00:26:16;22.00;71.30
17887;DHT22;9069;52.044;7.472;2022-08-21T00:28:43;22.10;71.60
17887;DHT22;9069;52.044;7.472;2022-08-21T00:31:12;22.00;71.70
17887;DHT22;9069;52.044;7.472;2022-08-21T00:33:39;22.00;72.00
17887;DHT22;9069;52.044;7.472;2022-08-21T00:36:06;22.00;72.10
17887;DHT22;9069;52.044;7.472;2022-08-21T00:38:34;21.90;72.20
17887;DHT22;9069;52.044;7.472;2022-08-21T00:41:02;21.90;72.50
17887;DHT22;9069;52.044;7.472;2022-08-21T00:43:50;21.90;72.80
17887;DHT22;9069;52.044;7.472;2022-08-21T00:46:17;21.90;72.80
17887;DHT22;9069;52.044;7.472;2022-08-21T00:48:44;21.90;73.10
17887;DHT22;9069;52.044;7.472;2022-08-21T00:51:18;21.80;73.20
17887;DHT22;9069;52.044;7.472;2022-08-21T00:53:55;21.80;73.80
17887;DHT22;9069;52.044;7.472;2022-08-21T00:56:25;21.80;73.80
17887;DHT22;9069;52.044;7.472;2022-08-21T00:58:54;21.80;73.80
17887;DHT22;9069;52.044;7.472;2022-08-21T01:01:22;21.80;74.30
17887;DHT22;9069;52.044;7.472;2022-08-21T01:03:49;21.80;74.20
17887;DHT22;9069;52.044;7.472;2022-08-21T01:06:17;21.80;74.40
17887;DHT22;9069;52.044;7.472;2022-08-21T01:08:44;21.80;74.40
17887;DHT22;9069;52.044;7.472;2022-08-21T01:11:14;21.80;74.40
17887;DHT22;9069;52.044;7.472;2022-08-21T01:13:41;21.80;74.60
17887;DHT22;9069;52.044;7.472;2022-08-21T01:16:15;21.80;74.60
17887;DHT22;9069;52.044;7.472;2022-08-21T01:18:44;21.80;74.60
17887;DHT22;9069;52.044;7.472;2022-08-21T01:21:23;21.70;74.50
17887;DHT22;9069;52.044;7.472;2022-08-21T01:23:55;21.80;74.60
17887;DHT22;9069;52.044;7.472;2022-08-21T01:26:26;21.70;74.40
17887;DHT22;9069;52.044;7.472;2022-08-21T01:29:02;21.70;74.60
17887;DHT22;9069;52.044;7.472;2022-08-21T01:31:31;21.70;74.50
17887;DHT22;9069;52.044;7.472;2022-08-21T01:33:59;21.60;74.40
17887;DHT22;9069;52.044;7.472;2022-08-21T01:36:26;21.70;74.50
17887;DHT22;9069;52.044;7.472;2022-08-21T01:38:53;21.60;74.50
17887;DHT22;9069;52.044;7.472;2022-08-21T01:41:20;21.50;74.50
17887;DHT22;9069;52.044;7.472;2022-08-21T01:43:46;21.50;74.60
17887;DHT22;9069;52.044;7.472;2022-08-21T01:46:14;21.50;74.80
17887;DHT22;9069;52.044;7.472;2022-08-21T01:48:42;21.50;75.10
17887;DHT22;9069;52.044;7.472;2022-08-21T01:51:10;21.40;75.00
17887;DHT22;9069;52.044;7.472;2022-08-21T01:53:36;21.30;75.10
17887;DHT22;9069;52.044;7.472;2022-08-21T01:56:07;21.30;75.20
17887;DHT22;9069;52.044;7.472;2022-08-21T01:58:42;21.30;75.60
17887;DHT22;9069;52.044;7.472;2022-08-21T02:01:09;21.30;75.50
17887;DHT22;9069;52.044;7.472;2022-08-21T02:03:37;21.20;75.50
17887;DHT22;9069;52.044;7.472;2022-08-21T02:06:05;21.20;75.60
17887;DHT22;9069;52.044;7.472;2022-08-21T02:08:33;21.20;75.80
17887;DHT22;9069;52.044;7.472;2022-08-21T02:11:00;21.10;75.90
17887;DHT22;9069;52.044;7.472;2022-08-21T02:13:27;21.10;75.90
17887;DHT22;9069;52.044;7.472;2022-08-21T02:15:54;21.10;76.00
17887;DHT22;9069;52.044;7.472;2022-08-21T02:18:21;21.00;76.10
17887;DHT22;9069;52.044;7.472;2022-08-21T02:20:48;21.00;76.20
17887;DHT22;9069;52.044;7.472;2022-08-21T02:23:22;21.00;76.40
17887;DHT22;9069;52.044;7.472;2022-08-21T02:25:57;20.90;76.40
17887;DHT22;9069;52.044;7.472;2022-08-21T02:28:24;20.90;76.60
17887;DHT22;9069;52.044;7.472;2022-08-21T02:30:54;20.80;76.60
17887;DHT22;9069;52.044;7.472;2022-08-21T02:33:22;20.80;76.80
17887;DHT22;9069;52.044;7.472;2022-08-21T02:35:50;20.80;77.80
17887;DHT22;9069;52.044;7.472;2022-08-21T02:38:20;20.80;77.10
17887;DHT22;9069;52.044;7.472;2022-08-21T02:40:49;20.70;77.40
17887;DHT22;9069;52.044;7.472;2022-08-21T02:43:18;20.70;77.50
17887;DHT22;9069;52.044;7.472;2022-08-21T02:45:45;20.70;77.60
17887;DHT22;9069;52.044;7.472;2022-08-21T02:48:16;20.60;77.70
17887;DHT22;9069;52.044;7.472;2022-08-21T02:50:47;20.60;78.00
17887;DHT22;9069;52.044;7.472;2022-08-21T02:53:15;20.60;78.30
17887;DHT22;9069;52.044;7.472;2022-08-21T02:55:48;20.50;78.20
17887;DHT22;9069;52.044;7.472;2022-08-21T02:58:18;20.50;78.80
17887;DHT22;9069;52.044;7.472;2022-08-21T03:00:45;20.50;78.60
17887;DHT22;9069;52.044;7.472;2022-08-21T03:03:12;20.50;78.50
17887;DHT22;9069;52.044;7.472;2022-08-21T03:05:41;20.40;78.70
17887;DHT22;9069;52.044;7.472;2022-08-21T03:08:10;20.40;78.80
17887;DHT22;9069;52.044;7.472;2022-08-21T03:10:42;20.40;79.00
17887;DHT22;9069;52.044;7.472;2022-08-21T03:13:10;20.30;79.20
17887;DHT22;9069;52.044;7.472;2022-08-21T03:15:38;20.30;79.30
17887;DHT22;9069;52.044;7.472;2022-08-21T03:18:05;20.30;79.40
17887;DHT22;9069;52.044;7.472;2022-08-21T03:20:33;20.30;79.60
17887;DHT22;9069;52.044;7.472;2022-08-21T03:23:00;20.20;79.80
17887;DHT22;9069;52.044;7.472;2022-08-21T03:25:28;20.20;79.60
17887;DHT22;9069;52.044;7.472;2022-08-21T03:28:10;20.20;79.80
17887;DHT22;9069;52.044;7.472;2022-08-21T03:30:44;20.20;81.10
17887;DHT22;9069;52.044;7.472;2022-08-21T03:33:12;20.10;80.70
17887;DHT22;9069;52.044;7.472;2022-08-21T03:35:42;20.10;80.40
17887;DHT22;9069;52.044;7.472;2022-08-21T03:38:10;20.10;80.70
17887;DHT22;9069;52.044;7.472;2022-08-21T03:40:36;20.10;80.80
17887;DHT22;9069;52.044;7.472;2022-08-21T03:43:03;20.10;81.00
17887;DHT22;9069;52.044;7.472;2022-08-21T03:45:30;20.10;81.20
17887;DHT22;9069;52.044;7.472;2022-08-21T03:48:02;20.10;81.40
17887;DHT22;9069;52.044;7.472;2022-08-21T03:50:32;20.00;81.60
17887;DHT22;9069;52.044;7.472;2022-08-21T03:53:00;20.00;81.60
17887;DHT22;9069;52.044;7.472;2022-08-21T03:55:28;20.00;81.60
17887;DHT22;9069;52.044;7.472;2022-08-21T03:57:55;20.00;81.80
17887;DHT22;9069;52.044;7.472;2022-08-21T04:00:22;20.00;81.70
17887;DHT22;9069;52.044;7.472;2022-08-21T04:02:50;20.00;82.00
17887;DHT22;9069;52.044;7.472;2022-08-21T04:05:17;19.90;82.10
17887;DHT22;9069;52.044;7.472;2022-08-21T04:08:02;19.90;82.20
17887;DHT22;9069;52.044;7.472;2022-08-21T04:10:32;19.90;82.70
17887;DHT22;9069;52.044;7.472;2022-08-21T04:13:01;19.90;82.60
17887;DHT22;9069;52.044;7.472;2022-08-21T04:15:27;19.90;82.40
17887;DHT22;9069;52.044;7.472;2022-08-21T04:17:54;19.90;82.60
17887;DHT22;9069;52.044;7.472;2022-08-21T04:20:22;19.90;82.80
17887;DHT22;9069;52.044;7.472;2022-08-21T04:22:49;19.90;83.10
17887;DHT22;9069;52.044;7.472;2022-08-21T04:25:18;19.80;83.10
17887;DHT22;9069;52.044;7.472;2022-08-21T04:27:45;19.80;83.30
17887;DHT22;9069;52.044;7.472;2022-08-21T04:30:13;19.80;83.40
17887;DHT22;9069;52.044;7.472;2022-08-21T04:32:47;19.80;83.50
17887;DHT22;9069;52.044;7.472;2022-08-21T04:35:19;19.80;84.00
17887;DHT22;9069;52.044;7.472;2022-08-21T04:37:46;19.80;84.00
17887;DHT22;9069;52.044;7.472;2022-08-21T04:40:14;19.80;83.90
17887;DHT22;9069;52.044;7.472;2022-08-21T04:43:07;19.80;84.20
17887;DHT22;9069;52.044;7.472;2022-08-21T04:45:37;19.80;85.00
17887;DHT22;9069;52.044;7.472;2022-08-21T04:48:06;19.80;84.60
17887;DHT22;9069;52.044;7.472;2022-08-21T04:51:01;19.80;84.90
17887;DHT22;9069;52.044;7.472;2022-08-21T04:53:44;19.80;85.70
17887;DHT22;9069;52.044;7.472;2022-08-21T04:56:15;19.70;85.60
17887;DHT22;9069;52.044;7.472;2022-08-21T04:58:43;19.70;85.30
17887;DHT22;9069;52.044;7.472;2022-08-21T05:01:13;19.70;85.20
17887;DHT22;9069;52.044;7.472;2022-08-21T05:03:41;19.80;85.90
17887;DHT22;9069;52.044;7.472;2022-08-21T05:06:11;19.80;85.60
17887;DHT22;9069;52.044;7.472;2022-08-21T05:08:39;19.70;85.90
17887;DHT22;9069;52.044;7.472;2022-08-21T05:11:07;19.80;86.00
17887;DHT22;9069;52.044;7.472;2022-08-21T05:13:35;19.80;86.20
17887;DHT22;9069;52.044;7.472;2022-08-21T05:16:02;19.70;86.50
17887;DHT22;9069;52.044;7.472;2022-08-21T05:18:28;19.80;86.70
17887;DHT22;9069;52.044;7.472;2022-08-21T05:20:55;19.80;86.70
17887;DHT22;9069;52.044;7.472;2022-08-21T05:23:23;19.80;86.90
17887;DHT22;9069;52.044;7.472;2022-08-21T05:25:52;19.80;87.20
17887;DHT22;9069;52.044;7.472;2022-08-21T05:28:19;19.90;87.80
17887;DHT22;9069;52.044;7.472;2022-08-21T05:30:46;19.90;87.80
17887;DHT22;9069;52.044;7.472;2022-08-21T05:33:13;19.90;88.00
17887;DHT22;9069;52.044;7.472;2022-08-21T05:35:40;19.90;88.00
17887;DHT22;9069;52.044;7.472;2022-08-21T05:38:07;20.00;88.30
17887;DHT22;9069;52.044;7.472;2022-08-21T05:40:44;20.00;88.60
17887;DHT22;9069;52.044;7.472;2022-08-21T05:43:10;20.00;88.40
17887;DHT22;9069;52.044;7.472;2022-08-21T05:45:37;20.10;88.50
17887;DHT22;9069;52.044;7.472;2022-08-21T05:48:15;20.10;88.60
17887;DHT22;9069;52.044;7.472;2022-08-21T05:50:43;20.10;89.40
17887;DHT22;9069;52.044;7.472;2022-08-21T05:53:10;20.20;89.20
17887;DHT22;9069;52.044;7.472;2022-08-21T05:55:38;20.20;89.20
17887;DHT22;9069;52.044;7.472;2022-08-21T05:58:11;20.30;89.40
17887;DHT22;9069;52.044;7.472;2022-08-21T06:00:38;20.30;89.40
17887;DHT22;9069;52.044;7.472;2022-08-21T06:03:11;20.30;89.40
17887;DHT22;9069;52.044;7.472;2022-08-21T06:05:38;20.40;89.70
17887;DHT22;9069;52.044;7.472;2022-08-21T06:08:05;20.50;89.50
17887;DHT22;9069;52.044;7.472;2022-08-21T06:10:32;20.50;89.50
17887;DHT22;9069;52.044;7.472;2022-08-21T06:12:58;20.50;89.40
17887;DHT22;9069;52.044;7.472;2022-08-21T06:15:26;20.60;89.50
17887;DHT22;9069;52.044;7.472;2022-08-21T06:17:53;20.60;89.40
17887;DHT22;9069;52.044;7.472;2022-08-21T06:20:21;20.70;89.50
17887;DHT22;9069;52.044;7.472;2022-08-21T06:22:47;20.70;89.50
17887;DHT22;9069;52.044;7.472;2022-08-21T06:25:14;20.80;89.40
17887;DHT22;9069;52.044;7.472;2022-08-21T06:27:41;20.90;89.50
17887;DHT22;9069;52.044;7.472;2022-08-21T06:30:08;20.90;89.60
17887;DHT22;9069;52.044;7.472;2022-08-21T06:32:36;21.00;90.30
17887;DHT22;9069;52.044;7.472;2022-08-21T06:35:05;21.10;89.90
17887;DHT22;9069;52.044;7.472;2022-08-21T06:37:33;21.20;90.10
17887;DHT22;9069;52.044;7.472;2022-08-21T06:40:00;21.30;90.30
17887;DHT22;9069;52.044;7.472;2022-08-21T06:42:27;21.40;90.50
17887;DHT22;9069;52.044;7.472;2022-08-21T06:44:57;21.60;90.70
17887;DHT22;9069;52.044;7.472;2022-08-21T06:47:24;21.80;90.80
17887;DHT22;9069;52.044;7.472;2022-08-21T06:49:50;22.10;91.00
17887;DHT22;9069;52.044;7.472;2022-08-21T06:52:17;22.30;90.90
17887;DHT22;9069;52.044;7.472;2022-08-21T06:54:44;22.60;90.80
17887;DHT22;9069;52.044;7.472;2022-08-21T06:57:11;22.90;90.70
17887;DHT22;9069;52.044;7.472;2022-08-21T06:59:37;23.20;90.60
17887;DHT22;9069;52.044;7.472;2022-08-21T07:02:04;23.50;90.10
17887;DHT22;9069;52.044;7.472;2022-08-21T07:04:31;23.90;89.60
17887;DHT22;9069;52.044;7.472;2022-08-21T07:06:58;24.20;88.80
17887;DHT22;9069;52.044;7.472;2022-08-21T07:09:24;24.50;87.90
17887;DHT22;9069;52.044;7.472;2022-08-21T07:11:54;24.90;86.00
17887;DHT22;9069;52.044;7.472;2022-08-21T07:14:21;25.20;83.30
17887;DHT22;9069;52.044;7.472;2022-08-21T07:16:49;25.50;82.60
17887;DHT22;9069;52.044;7.472;2022-08-21T07:19:17;25.90;81.10
17887;DHT22;9069;52.044;7.472;2022-08-21T07:21:44;26.30;80.00
17887;DHT22;9069;52.044;7.472;2022-08-21T07:24:11;26.70;78.80
17887;DHT22;9069;52.044;7.472;2022-08-21T07:26:38;27.00;76.90
17887;DHT22;9069;52.044;7.472;2022-08-21T07:29:05;27.40;75.10
17887;DHT22;9069;52.044;7.472;2022-08-21T07:31:32;27.70;74.50
17887;DHT22;9069;52.044;7.472;2022-08-21T07:33:58;28.10;72.40
17887;DHT22;9069;52.044;7.472;2022-08-21T07:36:25;28.40;70.40
17887;DHT22;9069;52.044;7.472;2022-08-21T07:38:52;28.70;69.20
17887;DHT22;9069;52.044;7.472;2022-08-21T07:41:22;28.90;67.90
17887;DHT22;9069;52.044;7.472;2022-08-21T07:43:49;29.20;66.50
17887;DHT22;9069;52.044;7.472;2022-08-21T07:46:19;29.40;66.00
17887;DHT22;9069;52.044;7.472;2022-08-21T07:48:46;29.60;65.20
17887;DHT22;9069;52.044;7.472;2022-08-21T07:51:15;29.80;64.90
17887;DHT22;9069;52.044;7.472;2022-08-21T07:53:49;30.00;63.90
17887;DHT22;9069;52.044;7.472;2022-08-21T07:56:17;30.20;62.70
17887;DHT22;9069;52.044;7.472;2022-08-21T07:58:44;30.40;63.50
17887;DHT22;9069;52.044;7.472;2022-08-21T08:01:11;30.50;62.90
17887;DHT22;9069;52.044;7.472;2022-08-21T08:03:38;30.70;62.50
17887;DHT22;9069;52.044;7.472;2022-08-21T08:06:06;31.00;61.80
17887;DHT22;9069;52.044;7.472;2022-08-21T08:08:35;31.20;61.50
17887;DHT22;9069;52.044;7.472;2022-08-21T08:11:01;31.40;61.20
17887;DHT22;9069;52.044;7.472;2022-08-21T08:13:28;31.70;61.10
17887;DHT22;9069;52.044;7.472;2022-08-21T08:15:55;31.90;60.50
17887;DHT22;9069;52.044;7.472;2022-08-21T08:18:21;32.20;59.90
17887;DHT22;9069;52.044;7.472;2022-08-21T08:20:48;32.40;59.50
17887;DHT22;9069;52.044;7.472;2022-08-21T08:23:15;32.60;58.90
17887;DHT22;9069;52.044;7.472;2022-08-21T08:25:42;32.80;58.10
17887;DHT22;9069;52.044;7.472;2022-08-21T08:28:08;33.10;57.90
17887;DHT22;9069;52.044;7.472;2022-08-21T08:30:44;33.30;57.30
17887;DHT22;9069;52.044;7.472;2022-08-21T08:33:11;33.60;56.70
17887;DHT22;9069;52.044;7.472;2022-08-21T08:35:37;33.80;55.90
17887;DHT22;9069;52.044;7.472;2022-08-21T08:38:05;34.00;55.10
17887;DHT22;9069;52.044;7.472;2022-08-21T08:40:42;34.30;54.70
17887;DHT22;9069;52.044;7.472;2022-08-21T08:43:12;34.30;53.30
17887;DHT22;9069;52.044;7.472;2022-08-21T08:45:43;34.40;50.10
17887;DHT22;9069;52.044;7.472;2022-08-21T08:48:16;34.50;51.90
17887;DHT22;9069;52.044;7.472;2022-08-21T08:50:54;34.70;52.10
17887;DHT22;9069;52.044;7.472;2022-08-21T08:53:25;34.90;51.60
17887;DHT22;9069;52.044;7.472;2022-08-21T08:55:55;35.00;51.50
17887;DHT22;9069;52.044;7.472;2022-08-21T08:58:26;35.10;51.10
17887;DHT22;9069;52.044;7.472;2022-08-21T09:00:54;35.20;50.20
17887;DHT22;9069;52.044;7.472;2022-08-21T09:03:24;35.30;50.30
17887;DHT22;9069;52.044;7.472;2022-08-21T09:09:08;35.30;48.80
17887;DHT22;9069;52.044;7.472;2022-08-21T09:11:59;35.30;48.40
17887;DHT22;9069;52.044;7.472;2022-08-21T09:17:31;35.30;48.20
17887;DHT22;9069;52.044;7.472;2022-08-21T09:20:21;35.20;48.60
17887;DHT22;9069;52.044;7.472;2022-08-21T09:23:01;35.20;47.90
17887;DHT22;9069;52.044;7.472;2022-08-21T09:25:38;35.10;48.60
17887;DHT22;9069;52.044;7.472;2022-08-21T09:28:11;35.10;47.90
17887;DHT22;9069;52.044;7.472;2022-08-21T09:30:40;35.10;48.00
17887;DHT22;9069;52.044;7.472;2022-08-21T09:33:09;35.10;48.40
17887;DHT22;9069;52.044;7.472;2022-08-21T09:35:51;35.20;48.20
17887;DHT22;9069;52.044;7.472;2022-08-21T09:38:51;35.20;48.00
17887;DHT22;9069;52.044;7.472;2022-08-21T09:41:28;35.20;48.30
17887;DHT22;9069;52.044;7.472;2022-08-21T09:43:55;35.20;48.00
17887;DHT22;9069;52.044;7.472;2022-08-21T09:46:25;35.30;48.50
17887;DHT22;9069;52.044;7.472;2022-08-21T09:48:57;35.40;48.00
17887;DHT22;9069;52.044;7.472;2022-08-21T09:51:29;35.40;47.20
17887;DHT22;9069;52.044;7.472;2022-08-21T10:01:51;35.30;47.40
17887;DHT22;9069;52.044;7.472;2022-08-21T10:04:34;35.40;47.50
17887;DHT22;9069;52.044;7.472;2022-08-21T10:07:13;35.30;47.30
17887;DHT22;9069;52.044;7.472;2022-08-21T10:09:41;35.40;47.50
17887;DHT22;9069;52.044;7.472;2022-08-21T10:12:15;35.40;47.90
17887;DHT22;9069;52.044;7.472;2022-08-21T10:14:54;35.60;47.30
17887;DHT22;9069;52.044;7.472;2022-08-21T10:20:28;35.90;47.10
17887;DHT22;9069;52.044;7.472;2022-08-21T10:36:39;36.40;45.40
17887;DHT22;9069;52.044;7.472;2022-08-21T10:39:34;36.50;44.80
17887;DHT22;9069;52.044;7.472;2022-08-21T10:42:23;36.60;44.80
17887;DHT22;9069;52.044;7.472;2022-08-21T10:47:54;36.60;44.60
17887;DHT22;9069;52.044;7.472;2022-08-21T10:50:46;36.60;43.80
17887;DHT22;9069;52.044;7.472;2022-08-21T10:56:24;36.30;43.60
17887;DHT22;9069;52.044;7.472;2022-08-21T11:01:53;36.00;43.80
17887;DHT22;9069;52.044;7.472;2022-08-21T11:04:38;35.80;43.90
17887;DHT22;9069;52.044;7.472;2022-08-21T11:07:20;35.60;45.50
17887;DHT22;9069;52.044;7.472;2022-08-21T11:09:49;35.40;46.00
17887;DHT22;9069;52.044;7.472;2022-08-21T11:12:26;35.20;45.20
17887;DHT22;9069;52.044;7.472;2022-08-21T11:26:58;33.70;45.40
17887;DHT22;9069;52.044;7.472;2022-08-21T11:29:33;33.40;45.90
17887;DHT22;9069;52.044;7.472;2022-08-21T11:43:47;32.40;47.30
17887;DHT22;9069;52.044;7.472;2022-08-21T11:46:23;32.30;47.10
17887;DHT22;9069;52.044;7.472;2022-08-21T11:49:06;32.10;47.20
17887;DHT22;9069;52.044;7.472;2022-08-21T11:51:41;32.00;47.10
17887;DHT22;9069;52.044;7.472;2022-08-21T11:54:43;31.90;47.30
17887;DHT22;9069;52.044;7.472;2022-08-21T11:57:41;31.80;47.50
17887;DHT22;9069;52.044;7.472;2022-08-21T12:00:17;31.60;47.60
17887;DHT22;9069;52.044;7.472;2022-08-21T12:02:49;31.50;47.20
17887;DHT22;9069;52.044;7.472;2022-08-21T12:05:30;31.40;47.30
17887;DHT22;9069;52.044;7.472;2022-08-21T12:08:10;31.40;47.50
17887;DHT22;9069;52.044;7.472;2022-08-21T12:10:40;31.30;47.60
17887;DHT22;9069;52.044;7.472;2022-08-21T12:13:23;31.20;47.60
17887;DHT22;9069;52.044;7.472;2022-08-21T12:16:11;31.10;47.90
17887;DHT22;9069;52.044;7.472;2022-08-21T12:18:39;31.00;47.80
17887;DHT22;9069;52.044;7.472;2022-08-21T12:23:59;30.90;47.70
17887;DHT22;9069;52.044;7.472;2022-08-21T12:29:12;30.80;48.30
17887;DHT22;9069;52.044;7.472;2022-08-21T12:31:57;30.70;48.00
17887;DHT22;9069;52.044;7.472;2022-08-21T12:34:35;30.60;47.90
17887;DHT22;9069;52.044;7.472;2022-08-21T12:37:15;30.60;47.90
17887;DHT22;9069;52.044;7.472;2022-08-21T12:39:47;30.60;48.80
17887;DHT22;9069;52.044;7.472;2022-08-21T12:42:24;30.60;48.80
17887;DHT22;9069;52.044;7.472;2022-08-21T12:45:02;30.50;48.60
17887;DHT22;9069;52.044;7.472;2022-08-21T12:47:56;30.40;48.20
17887;DHT22;9069;52.044;7.472;2022-08-21T12:50:46;30.40;48.20
17887;DHT22;9069;52.044;7.472;2022-08-21T12:53:31;30.40;48.30
17887;DHT22;9069;52.044;7.472;2022-08-21T12:56:07;30.30;48.50
17887;DHT22;9069;52.044;7.472;2022-08-21T12:58:36;30.30;48.60
17887;DHT22;9069;52.044;7.472;2022-08-21T13:01:11;30.30;48.90
17887;DHT22;9069;52.044;7.472;2022-08-21T13:03:41;30.30;48.80
17887;DHT22;9069;52.044;7.472;2022-08-21T13:06:14;30.30;49.40
17887;DHT22;9069;52.044;7.472;2022-08-21T13:08:43;30.30;49.20
17887;DHT22;9069;52.044;7.472;2022-08-21T13:11:15;30.30;48.90
17887;DHT22;9069;52.044;7.472;2022-08-21T13:14:00;30.40;49.00
17887;DHT22;9069;52.044;7.472;2022-08-21T13:16:31;30.40;49.20
17887;DHT22;9069;52.044;7.472;2022-08-21T13:19:05;30.40;48.90
17887;DHT22;9069;52.044;7.472;2022-08-21T13:21:34;30.40;48.80
17887;DHT22;9069;52.044;7.472;2022-08-21T13:24:23;30.40;48.70
17887;DHT22;9069;52.044;7.472;2022-08-21T13:27:29;30.50;48.50
17887;DHT22;9069;52.044;7.472;2022-08-21T13:30:17;30.50;48.30
17887;DHT22;9069;52.044;7.472;2022-08-21T13:32:48;30.50;48.80
17887;DHT22;9069;52.044;7.472;2022-08-21T13:35:22;30.40;48.60
17887;DHT22;9069;52.044;7.472;2022-08-21T13:37:50;30.40;48.60
17887;DHT22;9069;52.044;7.472;2022-08-21T13:40:42;30.40;48.60
17887;DHT22;9069;52.044;7.472;2022-08-21T13:43:14;30.40;48.90
17887;DHT22;9069;52.044;7.472;2022-08-21T13:45:54;30.40;48.60
17887;DHT22;9069;52.044;7.472;2022-08-21T13:48:23;30.40;49.30
17887;DHT22;9069;52.044;7.472;2022-08-21T13:50:52;30.40;49.20
17887;DHT22;9069;52.044;7.472;2022-08-21T13:53:43;30.30;48.90
17887;DHT22;9069;52.044;7.472;2022-08-21T13:56:30;30.30;48.60
17887;DHT22;9069;52.044;7.472;2022-08-21T13:58:59;30.30;48.70
17887;DHT22;9069;52.044;7.472;2022-08-21T14:01:51;30.30;49.00
17887;DHT22;9069;52.044;7.472;2022-08-21T14:04:33;30.20;48.30
17887;DHT22;9069;52.044;7.472;2022-08-21T14:07:03;30.20;48.80
17887;DHT22;9069;52.044;7.472;2022-08-21T14:09:42;30.10;48.90
17887;DHT22;9069;52.044;7.472;2022-08-21T14:12:26;30.10;48.40
17887;DHT22;9069;52.044;7.472;2022-08-21T14:14:55;30.00;48.40
17887;DHT22;9069;52.044;7.472;2022-08-21T14:17:29;30.00;48.70
17887;DHT22;9069;52.044;7.472;2022-08-21T14:19:59;29.90;48.50
17887;DHT22;9069;52.044;7.472;2022-08-21T14:22:30;29.90;48.90
17887;DHT22;9069;52.044;7.472;2022-08-21T14:25:00;29.90;49.00
17887;DHT22;9069;52.044;7.472;2022-08-21T14:27:29;29.80;48.90
17887;DHT22;9069;52.044;7.472;2022-08-21T14:30:04;29.80;49.00
17887;DHT22;9069;52.044;7.472;2022-08-21T14:32:40;29.80;49.00
17887;DHT22;9069;52.044;7.472;2022-08-21T14:35:12;29.80;48.80
17887;DHT22;9069;52.044;7.472;2022-08-21T14:37:43;29.80;48.90
17887;DHT22;9069;52.044;7.472;2022-08-21T14:40:11;29.80;48.70
17887;DHT22;9069;52.044;7.472;2022-08-21T14:42:42;29.80;49.10
17887;DHT22;9069;52.044;7.472;2022-08-21T14:45:30;29.80;49.10
17887;DHT22;9069;52.044;7.472;2022-08-21T14:47:58;29.70;49.10
17887;DHT22;9069;52.044;7.472;2022-08-21T14:50:25;29.70;49.00
17887;DHT22;9069;52.044;7.472;2022-08-21T14:52:54;29.70;49.20
17887;DHT22;9069;52.044;7.472;2022-08-21T14:55:20;29.60;49.10
17887;DHT22;9069;52.044;7.472;2022-08-21T14:57:50;29.60;49.20
17887;DHT22;9069;52.044;7.472;2022-08-21T15:00:20;29.60;48.90
17887;DHT22;9069;52.044;7.472;2022-08-21T15:02:52;29.50;48.80
17887;DHT22;9069;52.044;7.472;2022-08-21T15:05:19;29.40;49.00
17887;DHT22;9069;52.044;7.472;2022-08-21T15:07:58;29.50;49.10
17887;DHT22;9069;52.044;7.472;2022-08-21T15:10:25;29.40;48.90
17887;DHT22;9069;52.044;7.472;2022-08-21T15:12:52;29.40;49.10
17887;DHT22;9069;52.044;7.472;2022-08-21T15:15:18;29.30;49.30
17887;DHT22;9069;52.044;7.472;2022-08-21T15:17:45;29.30;49.60
17887;DHT22;9069;52.044;7.472;2022-08-21T15:20:14;29.30;49.60
17887;DHT22;9069;52.044;7.472;2022-08-21T15:22:41;29.20;49.60
17887;DHT22;9069;52.044;7.472;2022-08-21T15:25:14;29.20;49.80
17887;DHT22;9069;52.044;7.472;2022-08-21T15:27:41;29.20;49.70
17887;DHT22;9069;52.044;7.472;2022-08-21T15:30:08;29.10;49.60
17887;DHT22;9069;52.044;7.472;2022-08-21T15:32:35;29.10;49.70
17887;DHT22;9069;52.044;7.472;2022-08-21T15:35:02;29.10;49.50
17887;DHT22;9069;52.044;7.472;2022-08-21T15:37:29;29.10;49.60
17887;DHT22;9069;52.044;7.472;2022-08-21T15:39:56;29.10;49.70
17887;DHT22;9069;52.044;7.472;2022-08-21T15:42:24;29.00;49.50
17887;DHT22;9069;52.044;7.472;2022-08-21T15:44:54;29.00;49.40
17887;DHT22;9069;52.044;7.472;2022-08-21T15:47:25;29.00;49.50
17887;DHT22;9069;52.044;7.472;2022-08-21T15:49:53;28.90;49.80
17887;DHT22;9069;52.044;7.472;2022-08-21T15:52:21;28.90;50.00
17887;DHT22;9069;52.044;7.472;2022-08-21T15:54:48;28.90;50.00
17887;DHT22;9069;52.044;7.472;2022-08-21T15:57:18;29.00;50.20
17887;DHT22;9069;52.044;7.472;2022-08-21T15:59:48;28.80;50.40
17887;DHT22;9069;52.044;7.472;2022-08-21T16:02:20;28.90;50.30
17887;DHT22;9069;52.044;7.472;2022-08-21T16:04:47;28.80;50.30
17887;DHT22;9069;52.044;7.472;2022-08-21T16:07:14;28.80;50.30
17887;DHT22;9069;52.044;7.472;2022-08-21T16:09:41;28.80;50.50
17887;DHT22;9069;52.044;7.472;2022-08-21T16:12:11;28.80;50.20
17887;DHT22;9069;52.044;7.472;2022-08-21T16:14:39;28.80;50.00
17887;DHT22;9069;52.044;7.472;2022-08-21T16:17:06;28.80;50.20
17887;DHT22;9069;52.044;7.472;2022-08-21T16:19:34;28.80;50.10
17887;DHT22;9069;52.044;7.472;2022-08-21T16:22:02;28.80;50.30
17887;DHT22;9069;52.044;7.472;2022-08-21T16:24:29;28.80;50.10
17887;DHT22;9069;52.044;7.472;2022-08-21T16:26:56;28.80;50.20
17887;DHT22;9069;52.044;7.472;2022-08-21T16:29:29;28.80;50.10
17887;DHT22;9069;52.044;7.472;2022-08-21T16:31:57;28.80;50.00
17887;DHT22;9069;52.044;7.472;2022-08-21T16:34:24;28.80;49.90
17887;DHT22;9069;52.044;7.472;2022-08-21T16:36:51;28.80;49.80
17887;DHT22;9069;52.044;7.472;2022-08-21T16:39:17;28.80;49.70
17887;DHT22;9069;52.044;7.472;2022-08-21T16:41:45;28.90;49.70
17887;DHT22;9069;52.044;7.472;2022-08-21T16:44:14;28.80;49.60
17887;DHT22;9069;52.044;7.472;2022-08-21T16:46:42;28.90;49.70
17887;DHT22;9069;52.044;7.472;2022-08-21T16:49:09;28.80;49.60
17887;DHT22;9069;52.044;7.472;2022-08-21T16:51:39;28.80;49.30
17887;DHT22;9069;52.044;7.472;2022-08-21T16:54:05;28.80;49.40
17887;DHT22;9069;52.044;7.472;2022-08-21T16:56:32;28.80;49.50
17887;DHT22;9069;52.044;7.472;2022-08-21T16:59:03;28.80;49.70
17887;DHT22;9069;52.044;7.472;2022-08-21T17:01:32;28.80;49.40
17887;DHT22;9069;52.044;7.472;2022-08-21T17:04:00;28.70;49.60
17887;DHT22;9069;52.044;7.472;2022-08-21T17:06:26;28.70;49.90
17887;DHT22;9069;52.044;7.472;2022-08-21T17:08:57;28.70;50.00
17887;DHT22;9069;52.044;7.472;2022-08-21T17:11:31;28.60;49.90
17887;DHT22;9069;52.044;7.472;2022-08-21T17:14:14;28.60;49.50
17887;DHT22;9069;52.044;7.472;2022-08-21T17:16:45;28.60;49.80
17887;DHT22;9069;52.044;7.472;2022-08-21T17:19:12;28.50;49.40